createdAt,value
2023-04-07T00:00:06.006Z,93825.22
2023-04-07T00:02:33.242Z,93821.78
2023-04-07T00:05:00.170Z,93824.66
2023-04-07T00:07:26.902Z,93827.31
2023-04-07T00:09:53.507Z,93824.34
2023-04-07T00:12:20.637Z,93823.28
2023-04-07T00:14:47.253Z,93822.97
2023-04-07T00:17:13.842Z,93821.06
2023-04-07T00:19:40.548Z,93823.41
2023-04-07T00:22:07.140Z,93822.94
2023-04-07T00:24:34.831Z,93818.38
2023-04-07T00:27:02.170Z,93817.31
2023-04-07T00:29:28.809Z,93821.38
2023-04-07T00:31:55.429Z,93815.97
2023-04-07T00:34:22.072Z,93821.53
2023-04-07T00:36:52.220Z,93824.50
2023-04-07T00:39:19.479Z,93810.53
2023-04-07T00:41:46.814Z,93814.88
2023-04-07T00:44:14.144Z,93810.41
2023-04-07T00:46:41.628Z,93812.97
2023-04-07T00:49:11.098Z,93828.09
2023-04-07T00:51:38.199Z,93819.53
2023-04-07T00:54:05.549Z,93820.16
2023-04-07T00:56:32.417Z,93822.13
2023-04-07T00:58:59.082Z,93816.09
2023-04-07T01:01:31.685Z,93813.31
2023-04-07T01:04:04.456Z,93822.94
2023-04-07T01:06:36.751Z,93810.69
2023-04-07T01:09:42.900Z,93810.06
2023-04-07T01:12:43.098Z,93810.81
2023-04-07T01:15:12.309Z,93811.13
2023-04-07T01:17:45.068Z,93812.06
2023-04-07T01:20:16.517Z,93806.34
2023-04-07T01:22:47.079Z,93810.38
2023-04-07T01:25:31.405Z,93807.22
2023-04-07T01:28:22.288Z,93799.81
2023-04-07T01:30:51.289Z,93798.84
2023-04-07T01:33:18.949Z,93808.38
2023-04-07T01:35:46.931Z,93795.44
2023-04-07T01:38:14.367Z,93791.00
2023-04-07T01:40:41.709Z,93798.25
2023-04-07T01:43:09.066Z,93793.22
2023-04-07T01:45:36.513Z,93788.56
2023-04-07T01:48:07.019Z,93784.06
2023-04-07T01:50:34.511Z,93782.06
2023-04-07T01:53:01.971Z,93779.72
2023-04-07T01:55:28.911Z,93781.88
2023-04-07T01:57:55.488Z,93777.19
2023-04-07T02:00:22.732Z,93780.47
2023-04-07T02:02:52.342Z,93776.56
2023-04-07T02:05:21.898Z,93780.69
2023-04-07T02:08:06.339Z,93771.63
2023-04-07T02:10:36.322Z,93785.78
2023-04-07T02:13:06.532Z,93782.31
2023-04-07T02:15:34.125Z,93777.03
2023-04-07T02:18:02.382Z,93775.34
2023-04-07T02:20:30.689Z,93782.50
2023-04-07T02:22:57.586Z,93780.91
2023-04-07T02:25:30.359Z,93775.34
2023-04-07T02:27:58.857Z,93780.50
2023-04-07T02:30:26.364Z,93777.94
2023-04-07T02:32:53.713Z,93779.91
2023-04-07T02:35:21.208Z,93775.03
2023-04-07T02:37:48.070Z,93783.53
2023-04-07T02:40:15.006Z,93788.44
2023-04-07T02:42:42.058Z,93777.94
2023-04-07T02:45:09.912Z,93785.84
2023-04-07T02:47:37.532Z,93786.69
2023-04-07T02:50:04.785Z,93789.53
2023-04-07T02:52:31.450Z,93783.72
2023-04-07T02:54:58.001Z,93784.28
2023-04-07T02:57:24.568Z,93789.06
2023-04-07T02:59:51.438Z,93798.63
2023-04-07T03:02:18.122Z,93788.69
2023-04-07T03:04:44.806Z,93807.06
2023-04-07T03:07:11.679Z,93801.34
2023-04-07T03:09:38.308Z,93801.94
2023-04-07T03:12:04.940Z,93803.81
2023-04-07T03:14:31.547Z,93800.94
2023-04-07T03:16:58.160Z,93801.13
2023-04-07T03:19:24.884Z,93809.09
2023-04-07T03:21:51.715Z,93793.75
2023-04-07T03:24:18.574Z,93794.78
2023-04-07T03:26:45.284Z,93795.78
2023-04-07T03:29:11.972Z,93802.09
2023-04-07T03:31:38.912Z,93794.19
2023-04-07T03:34:05.584Z,93794.41
2023-04-07T03:36:32.159Z,93787.53
2023-04-07T03:38:58.835Z,93787.09
2023-04-07T03:41:25.490Z,93790.50
2023-04-07T03:43:52.404Z,93792.91
2023-04-07T03:46:22.362Z,93789.28
2023-04-07T03:48:49.205Z,93791.94
2023-04-07T03:51:16.239Z,93795.22
2023-04-07T03:53:42.888Z,93796.06
2023-04-07T03:56:09.904Z,93794.06
2023-04-07T03:58:36.816Z,93790.13
2023-04-07T04:01:03.581Z,93789.88
2023-04-07T04:03:30.425Z,93794.78
2023-04-07T04:05:57.134Z,93803.06
2023-04-07T04:08:24.121Z,93799.03
2023-04-07T04:10:51.317Z,93790.88
2023-04-07T04:13:17.917Z,93802.41
2023-04-07T04:15:44.567Z,93803.84
2023-04-07T04:18:11.636Z,93801.13
2023-04-07T04:20:38.284Z,93810.31
2023-04-07T04:23:04.890Z,93809.28
2023-04-07T04:25:31.447Z,93802.91
2023-04-07T04:27:58.074Z,93809.63
2023-04-07T04:30:24.805Z,93816.72
2023-04-07T04:32:51.614Z,93824.16
2023-04-07T04:35:18.388Z,93808.75
2023-04-07T04:37:45.126Z,93807.28
2023-04-07T04:40:12.472Z,93804.63
2023-04-07T04:42:39.392Z,93814.53
2023-04-07T04:45:07.053Z,93805.47
2023-04-07T04:47:33.791Z,93804.34
2023-04-07T04:50:00.544Z,93802.19
2023-04-07T04:52:27.412Z,93807.22
2023-04-07T04:54:55.189Z,93809.38
2023-04-07T04:57:21.766Z,93809.13
2023-04-07T04:59:48.491Z,93814.97
2023-04-07T05:02:15.408Z,93807.94
2023-04-07T05:04:42.160Z,93816.78
2023-04-07T05:07:08.808Z,93831.47
2023-04-07T05:09:35.397Z,93829.69
2023-04-07T05:12:02.659Z,93827.91
2023-04-07T05:14:29.303Z,93833.97
2023-04-07T05:16:55.951Z,93843.56
2023-04-07T05:19:22.597Z,93840.81
2023-04-07T05:21:49.178Z,93839.13
2023-04-07T05:24:15.889Z,93835.34
2023-04-07T05:26:42.546Z,93841.81
2023-04-07T05:29:09.106Z,93842.31
2023-04-07T05:31:37.649Z,93847.13
2023-04-07T05:34:04.379Z,93839.53
2023-04-07T05:36:31.791Z,93849.13
2023-04-07T05:38:58.479Z,93851.69
2023-04-07T05:41:25.031Z,93845.47
2023-04-07T05:43:51.920Z,93846.47
2023-04-07T05:46:18.764Z,93840.44
2023-04-07T05:48:45.573Z,93849.00
2023-04-07T05:51:12.208Z,93850.34
2023-04-07T05:53:40.534Z,93853.56
2023-04-07T05:56:07.360Z,93855.44
2023-04-07T05:58:33.997Z,93852.22
2023-04-07T06:01:00.559Z,93842.16
2023-04-07T06:03:27.256Z,93841.41
2023-04-07T06:05:53.886Z,93842.97
2023-04-07T06:08:20.587Z,93850.13
2023-04-07T06:10:47.185Z,93849.28
2023-04-07T06:13:14.034Z,93856.59
2023-04-07T06:15:40.641Z,93848.97
2023-04-07T06:18:07.243Z,93850.63
2023-04-07T06:20:33.841Z,93840.06
2023-04-07T06:23:00.464Z,93831.00
2023-04-07T06:25:27.254Z,93845.19
2023-04-07T06:27:55.693Z,93844.31
2023-04-07T06:30:22.373Z,93839.53
2023-04-07T06:32:49.000Z,93841.44
2023-04-07T06:35:16.084Z,93848.94
2023-04-07T06:37:42.773Z,93854.09
2023-04-07T06:40:09.786Z,93842.25
2023-04-07T06:42:36.492Z,93852.41
2023-04-07T06:45:04.182Z,93850.13
2023-04-07T06:47:30.862Z,93850.91
2023-04-07T06:49:57.595Z,93845.69
2023-04-07T06:52:24.197Z,93848.00
2023-04-07T06:54:50.864Z,93848.25
2023-04-07T06:57:17.435Z,93849.94
2023-04-07T06:59:44.294Z,93842.50
2023-04-07T07:02:11.053Z,93849.03
2023-04-07T07:04:37.922Z,93850.03
2023-04-07T07:07:04.581Z,93859.75
2023-04-07T07:09:31.443Z,93861.69
2023-04-07T07:11:58.057Z,93862.91
2023-04-07T07:14:24.662Z,93863.75
2023-04-07T07:16:51.275Z,93855.56
2023-04-07T07:19:17.841Z,93858.84
2023-04-07T07:21:44.477Z,93858.22
2023-04-07T07:24:11.020Z,93868.75
2023-04-07T07:26:37.635Z,93859.78
2023-04-07T07:29:04.238Z,93862.75
2023-04-07T07:31:31.616Z,93869.06
2023-04-07T07:33:58.432Z,93866.59
2023-04-07T07:36:25.180Z,93883.81
2023-04-07T07:38:51.941Z,93876.63
2023-04-07T07:41:18.720Z,93878.19
2023-04-07T07:43:45.494Z,93889.38
2023-04-07T07:46:12.325Z,93886.69
2023-04-07T07:48:39.103Z,93885.84
2023-04-07T07:51:06.187Z,93884.63
2023-04-07T07:53:32.751Z,93878.81
2023-04-07T07:55:59.444Z,93890.81
2023-04-07T07:58:26.143Z,93891.41
2023-04-07T08:00:52.802Z,93882.72
2023-04-07T08:03:22.615Z,93892.56
2023-04-07T08:05:50.436Z,93882.16
2023-04-07T08:08:17.026Z,93878.84
2023-04-07T08:10:43.855Z,93881.22
2023-04-07T08:13:10.734Z,93895.53
2023-04-07T08:15:37.328Z,93887.72
2023-04-07T08:18:06.468Z,93879.63
2023-04-07T08:20:33.818Z,93886.16
2023-04-07T08:23:02.236Z,93895.56
2023-04-07T08:25:29.797Z,93892.13
2023-04-07T08:27:56.568Z,93891.47
2023-04-07T08:30:23.316Z,93886.00
2023-04-07T08:32:50.150Z,93891.69
2023-04-07T08:35:16.824Z,93883.38
2023-04-07T08:37:44.558Z,93888.53
2023-04-07T08:40:12.410Z,93889.72
2023-04-07T08:42:43.039Z,93891.25
2023-04-07T08:45:10.124Z,93885.41
2023-04-07T08:47:38.504Z,93891.47
2023-04-07T08:50:07.943Z,93884.19
2023-04-07T08:52:37.531Z,93890.91
2023-04-07T08:55:06.742Z,93890.28
2023-04-07T08:57:34.100Z,93886.25
2023-04-07T09:00:08.201Z,93890.56
2023-04-07T09:02:37.781Z,93887.28
2023-04-07T09:05:06.713Z,93883.19
2023-04-07T09:07:35.444Z,93878.81
2023-04-07T09:10:02.588Z,93874.66
2023-04-07T09:12:30.712Z,93886.44
2023-04-07T09:14:58.124Z,93885.38
2023-04-07T09:17:28.725Z,93892.94
2023-04-07T09:20:00.051Z,93886.72
2023-04-07T09:22:47.389Z,93893.00
2023-04-07T09:25:27.560Z,93893.94
2023-04-07T09:28:02.028Z,93885.09
2023-04-07T09:30:30.483Z,93896.41
2023-04-07T09:32:58.482Z,93892.72
2023-04-07T09:35:25.241Z,93895.63
2023-04-07T09:38:09.301Z,93901.19
2023-04-07T09:40:37.429Z,93902.50
2023-04-07T09:43:05.458Z,93907.97
2023-04-07T09:45:36.209Z,93901.31
2023-04-07T09:48:08.012Z,93903.44
2023-04-07T09:50:42.074Z,93899.81
2023-04-07T09:53:08.704Z,93902.72
2023-04-07T09:55:36.327Z,93899.34
2023-04-07T09:58:04.556Z,93900.47
2023-04-07T10:00:31.253Z,93897.38
2023-04-07T10:02:58.888Z,93897.50
2023-04-07T10:05:25.837Z,93904.78
2023-04-07T10:07:53.206Z,93907.78
2023-04-07T10:10:19.951Z,93899.34
2023-04-07T10:12:49.678Z,93900.72
2023-04-07T10:15:16.399Z,93897.13
2023-04-07T10:17:50.009Z,93892.56
2023-04-07T10:20:22.836Z,93897.53
2023-04-07T10:22:53.828Z,93904.84
2023-04-07T10:25:24.667Z,93894.63
2023-04-07T10:27:54.867Z,93890.44
2023-04-07T10:30:25.465Z,93912.00
2023-04-07T10:32:54.292Z,93897.78
2023-04-07T10:35:22.288Z,93905.03
2023-04-07T10:38:07.927Z,93909.13
2023-04-07T10:40:35.891Z,93909.44
2023-04-07T10:43:03.265Z,93917.53
2023-04-07T10:45:56.099Z,93923.19
2023-04-07T10:48:23.403Z,93917.78
2023-04-07T10:51:05.001Z,93925.34
2023-04-07T10:53:31.848Z,93928.38
2023-04-07T10:56:00.367Z,93928.69
2023-04-07T10:58:31.087Z,93921.31
2023-04-07T11:01:00.796Z,93918.97
2023-04-07T11:03:29.823Z,93923.09
2023-04-07T11:06:09.590Z,93916.47
2023-04-07T11:08:45.663Z,93925.56
2023-04-07T11:11:16.162Z,93924.28
2023-04-07T11:13:43.361Z,93918.28
2023-04-07T11:16:10.819Z,93916.38
2023-04-07T11:18:38.090Z,93918.78
2023-04-07T11:21:06.840Z,93920.31
2023-04-07T11:23:44.552Z,93916.81
2023-04-07T11:26:13.218Z,93915.09
2023-04-07T11:28:53.073Z,93920.16
2023-04-07T11:31:27.606Z,93919.03
2023-04-07T11:33:59.394Z,93915.53
2023-04-07T11:36:34.198Z,93925.59
2023-04-07T11:39:03.052Z,93933.97
2023-04-07T11:41:32.888Z,93928.03
2023-04-07T11:44:12.730Z,93929.31
2023-04-07T11:46:59.830Z,93927.19
2023-04-07T11:49:28.611Z,93928.69
2023-04-07T11:52:09.477Z,93935.84
2023-04-07T11:54:47.454Z,93931.00
2023-04-07T11:57:14.864Z,93925.66
2023-04-07T11:59:41.953Z,93929.88
2023-04-07T12:02:08.832Z,93926.66
2023-04-07T12:04:37.902Z,93931.63
2023-04-07T12:07:10.781Z,93924.47
2023-04-07T12:09:38.329Z,93919.91
2023-04-07T12:12:07.839Z,93921.72
2023-04-07T12:14:35.278Z,93923.50
2023-04-07T12:17:03.619Z,93931.31
2023-04-07T12:19:39.743Z,93918.94
2023-04-07T12:22:06.537Z,93925.44
2023-04-07T12:24:33.111Z,93935.47
2023-04-07T12:27:00.194Z,93924.63
2023-04-07T12:29:26.933Z,93933.53
2023-04-07T12:31:53.609Z,93930.75
2023-04-07T12:34:20.736Z,93920.78
2023-04-07T12:36:47.538Z,93928.44
2023-04-07T12:39:15.176Z,93925.56
2023-04-07T12:41:42.154Z,93918.50
2023-04-07T12:44:08.768Z,93931.47
2023-04-07T12:46:35.371Z,93927.88
2023-04-07T12:49:02.792Z,93929.19
2023-04-07T12:51:29.417Z,93925.13
2023-04-07T12:53:56.062Z,93924.19
2023-04-07T12:56:22.787Z,93931.06
2023-04-07T12:58:49.442Z,93923.56
2023-04-07T13:01:16.845Z,93934.03
2023-04-07T13:03:44.058Z,93935.78
2023-04-07T13:06:11.755Z,93940.59
2023-04-07T13:08:39.566Z,93947.72
2023-04-07T13:11:06.595Z,93936.44
2023-04-07T13:13:33.902Z,93930.34
2023-04-07T13:16:00.998Z,93922.25
2023-04-07T13:18:32.834Z,93938.72
2023-04-07T13:21:33.716Z,93939.78
2023-04-07T13:23:46.581Z,93935.41
2023-04-07T13:26:13.224Z,93944.09
2023-04-07T13:28:39.910Z,93943.81
2023-04-07T13:31:07.671Z,93945.66
2023-04-07T13:33:34.912Z,93941.38
2023-04-07T13:36:02.307Z,93944.66
2023-04-07T13:38:29.046Z,93963.84
2023-04-07T13:40:55.646Z,93951.41
2023-04-07T13:43:22.269Z,93949.66
2023-04-07T13:45:49.467Z,93961.72
2023-04-07T13:48:16.195Z,93967.44
2023-04-07T13:50:42.792Z,93978.75
2023-04-07T13:53:09.502Z,93980.97
2023-04-07T13:55:36.812Z,93976.53
2023-04-07T13:58:03.435Z,93977.03
2023-04-07T14:00:30.266Z,93977.22
2023-04-07T14:02:57.213Z,93984.16
2023-04-07T14:05:24.751Z,93987.72
2023-04-07T14:07:51.609Z,93986.50
2023-04-07T14:10:18.349Z,93981.97
2023-04-07T14:12:45.042Z,93989.56
2023-04-07T14:15:11.888Z,94001.59
2023-04-07T14:17:38.614Z,93997.13
2023-04-07T14:20:06.137Z,94003.13
2023-04-07T14:22:32.762Z,94008.31
2023-04-07T14:24:59.730Z,94002.34
2023-04-07T14:27:26.428Z,94011.75
2023-04-07T14:29:54.130Z,94008.56
2023-04-07T14:32:20.920Z,94003.44
2023-04-07T14:34:47.907Z,94013.00
2023-04-07T14:37:16.183Z,94010.00
2023-04-07T14:39:45.887Z,94015.09
2023-04-07T14:42:22.514Z,94017.34
2023-04-07T14:44:49.842Z,94009.66
2023-04-07T14:47:16.481Z,94005.59
2023-04-07T14:49:43.159Z,94024.09
2023-04-07T14:52:10.506Z,94017.53
2023-04-07T14:54:37.379Z,94028.97
2023-04-07T14:57:04.004Z,94024.91
2023-04-07T14:59:30.624Z,94030.16
2023-04-07T15:01:57.319Z,94032.44
2023-04-07T15:04:24.126Z,94034.97
2023-04-07T15:06:50.945Z,94029.63
2023-04-07T15:09:19.035Z,94025.41
2023-04-07T15:11:48.541Z,94042.09
2023-04-07T15:14:15.424Z,94020.78
2023-04-07T15:16:42.180Z,94025.47
2023-04-07T15:19:08.867Z,94033.63
2023-04-07T15:21:35.696Z,94046.50
2023-04-07T15:24:02.318Z,94034.88
2023-04-07T15:26:28.939Z,94039.31
2023-04-07T15:28:55.761Z,94041.38
2023-04-07T15:31:23.513Z,94038.28
2023-04-07T15:33:51.029Z,94044.06
2023-04-07T15:36:17.589Z,94043.69
2023-04-07T15:38:44.226Z,94047.03
2023-04-07T15:41:14.688Z,94033.63
2023-04-07T15:43:41.282Z,94041.06
2023-04-07T15:46:08.061Z,94053.50
2023-04-07T15:48:34.655Z,94041.84
2023-04-07T15:51:01.283Z,94048.19
2023-04-07T15:53:27.899Z,94052.09
2023-04-07T15:55:54.944Z,94050.41
2023-04-07T15:58:21.544Z,94053.09
2023-04-07T16:00:48.219Z,94052.34
2023-04-07T16:03:15.150Z,94049.03
2023-04-07T16:05:42.019Z,94051.06
2023-04-07T16:08:08.638Z,94054.25
2023-04-07T16:10:35.295Z,94063.97
2023-04-07T16:13:01.875Z,94066.94
2023-04-07T16:15:39.246Z,94062.25
2023-04-07T16:18:10.134Z,94070.47
2023-04-07T16:20:36.753Z,94070.75
2023-04-07T16:23:03.484Z,94083.59
2023-04-07T16:25:31.307Z,94086.09
2023-04-07T16:27:58.185Z,94075.38
2023-04-07T16:30:25.441Z,94082.03
2023-04-07T16:32:52.372Z,94077.13
2023-04-07T16:35:19.629Z,94075.38
2023-04-07T16:37:46.589Z,94084.44
2023-04-07T16:40:13.991Z,94085.22
2023-04-07T16:42:40.992Z,94082.59
2023-04-07T16:45:08.265Z,94089.47
2023-04-07T16:47:35.465Z,94097.00
2023-04-07T16:50:04.039Z,94095.06
2023-04-07T16:52:31.009Z,94090.00
2023-04-07T16:54:58.215Z,94088.66
2023-04-07T16:57:24.824Z,94088.41
2023-04-07T16:59:51.446Z,94100.44
2023-04-07T17:02:18.182Z,94104.09
2023-04-07T17:04:44.985Z,94113.28
2023-04-07T17:07:12.076Z,94107.28
2023-04-07T17:09:39.461Z,94112.53
2023-04-07T17:12:06.496Z,94117.38
2023-04-07T17:14:33.549Z,94120.22
2023-04-07T17:17:00.914Z,94116.13
2023-04-07T17:19:27.770Z,94119.94
2023-04-07T17:21:54.407Z,94116.16
2023-04-07T17:24:21.169Z,94123.84
2023-04-07T17:26:47.998Z,94121.75
2023-04-07T17:29:15.670Z,94120.72
2023-04-07T17:31:42.507Z,94120.38
2023-04-07T17:34:09.133Z,94130.63
2023-04-07T17:36:37.603Z,94132.59
2023-04-07T17:39:05.162Z,94135.13
2023-04-07T17:41:34.566Z,94139.72
2023-04-07T17:44:02.308Z,94141.06
2023-04-07T17:46:29.370Z,94143.16
2023-04-07T17:49:00.325Z,94149.91
2023-04-07T17:51:27.669Z,94144.59
2023-04-07T17:53:54.963Z,94156.66
2023-04-07T17:56:21.687Z,94155.03
2023-04-07T17:58:48.523Z,94154.34
2023-04-07T18:01:15.830Z,94163.34
2023-04-07T18:03:42.935Z,94165.44
2023-04-07T18:06:09.749Z,94173.69
2023-04-07T18:08:36.650Z,94187.69
2023-04-07T18:11:05.911Z,94180.22
2023-04-07T18:13:34.035Z,94179.22
2023-04-07T18:16:00.848Z,94177.34
2023-04-07T18:18:27.614Z,94186.91
2023-04-07T18:20:54.265Z,94178.91
2023-04-07T18:23:20.849Z,94178.78
2023-04-07T18:25:47.593Z,94182.34
2023-04-07T18:28:14.250Z,94183.00
2023-04-07T18:30:40.835Z,94182.13
2023-04-07T18:33:07.598Z,94187.91
2023-04-07T18:35:34.489Z,94185.44
2023-04-07T18:38:01.142Z,94190.66
2023-04-07T18:40:30.018Z,94181.91
2023-04-07T18:42:56.686Z,94189.72
2023-04-07T18:45:23.343Z,94196.53
2023-04-07T18:47:51.254Z,94197.19
2023-04-07T18:50:18.299Z,94195.91
2023-04-07T18:52:44.918Z,94193.56
2023-04-07T18:55:11.531Z,94190.69
2023-04-07T18:57:39.462Z,94182.53
2023-04-07T19:00:06.723Z,94182.78
2023-04-07T19:02:33.584Z,94182.69
2023-04-07T19:05:00.371Z,94184.13
2023-04-07T19:07:26.994Z,94190.34
2023-04-07T19:09:53.914Z,94177.47
2023-04-07T19:12:20.924Z,94190.31
2023-04-07T19:14:47.530Z,94184.56
2023-04-07T19:17:14.243Z,94186.31
2023-04-07T19:19:40.888Z,94186.88
2023-04-07T19:22:07.553Z,94190.91
2023-04-07T19:24:34.273Z,94189.13
2023-04-07T19:27:02.228Z,94185.59
2023-04-07T19:29:29.304Z,94186.97
2023-04-07T19:31:57.404Z,94185.81
2023-04-07T19:34:24.104Z,94183.41
2023-04-07T19:36:50.767Z,94185.19
2023-04-07T19:39:17.406Z,94176.63
2023-04-07T19:41:44.028Z,94198.22
2023-04-07T19:44:10.921Z,94185.91
2023-04-07T19:46:37.675Z,94190.81
2023-04-07T19:49:04.267Z,94187.81
2023-04-07T19:51:31.144Z,94186.34
2023-04-07T19:53:57.813Z,94179.47
2023-04-07T19:56:25.152Z,94186.56
2023-04-07T19:58:51.885Z,94185.13
2023-04-07T20:01:19.236Z,94178.91
2023-04-07T20:03:46.838Z,94189.38
2023-04-07T20:06:15.114Z,94182.34
2023-04-07T20:08:42.355Z,94190.31
2023-04-07T20:11:13.035Z,94193.66
2023-04-07T20:13:41.184Z,94191.47
2023-04-07T20:16:08.297Z,94191.66
2023-04-07T20:18:34.977Z,94195.34
2023-04-07T20:21:02.843Z,94196.78
2023-04-07T20:23:29.584Z,94193.13
2023-04-07T20:25:56.470Z,94193.34
2023-04-07T20:28:23.422Z,94201.66
2023-04-07T20:30:50.580Z,94194.56
2023-04-07T20:33:17.287Z,94195.91
2023-04-07T20:35:44.104Z,94206.69
2023-04-07T20:38:11.170Z,94207.53
2023-04-07T20:40:37.867Z,94207.22
2023-04-07T20:43:05.541Z,94209.22
2023-04-07T20:45:33.174Z,94203.75
2023-04-07T20:48:00.240Z,94207.63
2023-04-07T20:50:28.521Z,94204.94
2023-04-07T20:52:55.170Z,94200.72
2023-04-07T20:55:21.877Z,94210.69
2023-04-07T20:57:50.267Z,94213.63
2023-04-07T21:00:18.777Z,94219.47
2023-04-07T21:02:46.951Z,94224.53
2023-04-07T21:05:13.889Z,94219.75
2023-04-07T21:07:40.603Z,94224.16
2023-04-07T21:10:08.743Z,94213.25
2023-04-07T21:12:35.952Z,94213.44
2023-04-07T21:15:02.554Z,94215.78
2023-04-07T21:17:29.252Z,94212.78
2023-04-07T21:19:55.989Z,94209.56
2023-04-07T21:22:22.582Z,94206.34
2023-04-07T21:24:49.216Z,94209.56
2023-04-07T21:27:16.564Z,94214.28
2023-04-07T21:29:43.224Z,94218.03
2023-04-07T21:32:10.622Z,94213.97
2023-04-07T21:34:37.335Z,94206.59
2023-04-07T21:37:04.007Z,94209.78
2023-04-07T21:39:30.935Z,94207.94
2023-04-07T21:41:57.653Z,94204.31
2023-04-07T21:44:24.308Z,94206.00
2023-04-07T21:46:51.324Z,94205.69
2023-04-07T21:49:21.984Z,94201.91
2023-04-07T21:51:49.343Z,94210.22
2023-04-07T21:54:16.071Z,94211.00
2023-04-07T21:56:43.040Z,94205.44
2023-04-07T21:59:09.614Z,94211.56
2023-04-07T22:01:36.385Z,94213.66
2023-04-07T22:04:03.058Z,94216.19
2023-04-07T22:06:29.748Z,94213.97
2023-04-07T22:09:01.869Z,94217.13
2023-04-07T22:11:29.572Z,94217.88
2023-04-07T22:13:56.145Z,94222.03
2023-04-07T22:16:22.848Z,94219.53
2023-04-07T22:18:49.753Z,94219.31
2023-04-07T22:21:18.024Z,94219.53
2023-04-07T22:23:44.942Z,94217.63
2023-04-07T22:26:11.668Z,94223.16
2023-04-07T22:28:38.285Z,94222.16
2023-04-07T22:31:05.179Z,94228.72
2023-04-07T22:33:31.801Z,94222.31
2023-04-07T22:35:58.489Z,94226.50
2023-04-07T22:38:25.377Z,94219.53
2023-04-07T22:40:52.005Z,94219.44
2023-04-07T22:43:18.855Z,94222.38
2023-04-07T22:45:45.583Z,94210.22
2023-04-07T22:48:12.694Z,94215.97
2023-04-07T22:50:39.468Z,94219.53
2023-04-07T22:53:07.427Z,94212.34
2023-04-07T22:55:34.827Z,94222.13
2023-04-07T22:58:02.225Z,94217.84
2023-04-07T23:00:28.910Z,94210.72
2023-04-07T23:02:55.819Z,94223.28
2023-04-07T23:05:22.709Z,94210.78
2023-04-07T23:07:51.347Z,94215.25
2023-04-07T23:10:18.064Z,94220.81
2023-04-07T23:12:44.680Z,94208.25
2023-04-07T23:15:11.482Z,94209.59
2023-04-07T23:17:38.118Z,94208.34
2023-04-07T23:20:05.218Z,94195.22
2023-04-07T23:22:31.862Z,94192.88
2023-04-07T23:24:58.422Z,94194.59
2023-04-07T23:27:25.038Z,94191.94
2023-04-07T23:29:51.752Z,94190.44
2023-04-07T23:32:18.530Z,94186.69
2023-04-07T23:34:45.131Z,94196.78
2023-04-07T23:37:11.745Z,94189.53
2023-04-07T23:39:39.169Z,94196.41
2023-04-07T23:42:05.804Z,94187.88
2023-04-07T23:44:32.379Z,94186.03
2023-04-07T23:46:58.998Z,94183.25
2023-04-07T23:49:26.154Z,94181.19
2023-04-07T23:51:52.806Z,94176.66
2023-04-07T23:54:19.383Z,94178.25
2023-04-07T23:56:46.035Z,94175.31
2023-04-07T23:59:13.346Z,94179.16
